sensor_id;sensor_type;location;lat;lon;timestamp;P1;durP1;ratioP1;P2;durP2;ratioP2
55090;SDS011;40985;53.180;5.800;2023-07-31T00:01:04;6.57;;;0.50;;
55090;SDS011;40985;53.180;5.800;2023-07-31T00:03:30;5.47;;;0.73;;
55090;SDS011;40985;53.180;5.800;2023-07-31T00:05:56;9.93;;;0.60;;
55090;SDS011;40985;53.180;5.800;2023-07-31T00:08:21;4.88;;;0.50;;
55090;SDS011;40985;53.180;5.800;2023-07-31T00:10:47;6.15;;;0.63;;
55090;SDS011;40985;53.180;5.800;2023-07-31T00:13:16;5.95;;;0.40;;
55090;SDS011;40985;53.180;5.800;2023-07-31T00:15:41;4.68;;;0.40;;
55090;SDS011;40985;53.180;5.800;2023-07-31T00:18:07;3.22;;;0.32;;
55090;SDS011;40985;53.180;5.800;2023-07-31T00:20:32;9.00;;;0.73;;
55090;SDS011;40985;53.180;5.800;2023-07-31T00:22:58;3.50;;;0.40;;
55090;SDS011;40985;53.180;5.800;2023-07-31T00:25:24;6.20;;;0.50;;
55090;SDS011;40985;53.180;5.800;2023-07-31T00:27:49;4.05;;;0.50;;
55090;SDS011;40985;53.180;5.800;2023-07-31T00:30:15;6.65;;;0.75;;
55090;SDS011;40985;53.180;5.800;2023-07-31T00:32:41;8.57;;;0.90;;
55090;SDS011;40985;53.180;5.800;2023-07-31T00:35:07;3.40;;;0.40;;
55090;SDS011;40985;53.180;5.800;2023-07-31T00:37:32;8.63;;;0.90;;
55090;SDS011;40985;53.180;5.800;2023-07-31T00:39:58;6.65;;;1.05;;
55090;SDS011;40985;53.180;5.800;2023-07-31T00:42:24;4.97;;;0.55;;
55090;SDS011;40985;53.180;5.800;2023-07-31T00:44:49;7.60;;;0.98;;
55090;SDS011;40985;53.180;5.800;2023-07-31T00:47:15;6.85;;;0.50;;
55090;SDS011;40985;53.180;5.800;2023-07-31T00:49:41;5.20;;;0.68;;
55090;SDS011;40985;53.180;5.800;2023-07-31T00:52:07;7.78;;;0.50;;
55090;SDS011;40985;53.180;5.800;2023-07-31T00:54:34;7.30;;;0.57;;
55090;SDS011;40985;53.180;5.800;2023-07-31T00:56:59;3.72;;;0.40;;
55090;SDS011;40985;53.180;5.800;2023-07-31T00:59:25;5.63;;;0.50;;
55090;SDS011;40985;53.180;5.800;2023-07-31T01:01:51;4.97;;;0.52;;
55090;SDS011;40985;53.180;5.800;2023-07-31T01:04:17;3.85;;;0.55;;
55090;SDS011;40985;53.180;5.800;2023-07-31T01:06:56;7.82;;;0.40;;
55090;SDS011;40985;53.180;5.800;2023-07-31T01:09:42;6.57;;;0.50;;
55090;SDS011;40985;53.180;5.800;2023-07-31T01:12:15;8.93;;;0.70;;
55090;SDS011;40985;53.180;5.800;2023-07-31T01:15:24;7.15;;;0.60;;
55090;SDS011;40985;53.180;5.800;2023-07-31T01:17:31;6.50;;;0.50;;
55090;SDS011;40985;53.180;5.800;2023-07-31T01:19:59;6.55;;;1.30;;
55090;SDS011;40985;53.180;5.800;2023-07-31T01:25:11;3.70;;;0.40;;
55090;SDS011;40985;53.180;5.800;2023-07-31T01:27:59;4.50;;;0.50;;
55090;SDS011;40985;53.180;5.800;2023-07-31T01:30:33;6.55;;;0.95;;
55090;SDS011;40985;53.180;5.800;2023-07-31T01:33:02;7.78;;;0.60;;
55090;SDS011;40985;53.180;5.800;2023-07-31T01:35:35;6.85;;;0.60;;
55090;SDS011;40985;53.180;5.800;2023-07-31T01:38:02;6.90;;;0.68;;
55090;SDS011;40985;53.180;5.800;2023-07-31T01:40:28;6.18;;;0.50;;
55090;SDS011;40985;53.180;5.800;2023-07-31T01:42:53;7.18;;;0.60;;
55090;SDS011;40985;53.180;5.800;2023-07-31T01:45:19;5.82;;;0.45;;
55090;SDS011;40985;53.180;5.800;2023-07-31T01:47:45;4.95;;;1.08;;
55090;SDS011;40985;53.180;5.800;2023-07-31T01:50:10;3.47;;;0.50;;
55090;SDS011;40985;53.180;5.800;2023-07-31T01:52:37;5.80;;;0.50;;
55090;SDS011;40985;53.180;5.800;2023-07-31T01:55:03;5.22;;;0.40;;
55090;SDS011;40985;53.180;5.800;2023-07-31T01:57:29;3.95;;;0.40;;
55090;SDS011;40985;53.180;5.800;2023-07-31T01:59:55;6.72;;;0.60;;
55090;SDS011;40985;53.180;5.800;2023-07-31T02:02:21;3.53;;;0.38;;
55090;SDS011;40985;53.180;5.800;2023-07-31T02:04:48;4.18;;;0.63;;
55090;SDS011;40985;53.180;5.800;2023-07-31T02:07:14;4.38;;;0.88;;
55090;SDS011;40985;53.180;5.800;2023-07-31T02:09:39;7.78;;;0.70;;
55090;SDS011;40985;53.180;5.800;2023-07-31T02:12:05;11.13;;;0.90;;
55090;SDS011;40985;53.180;5.800;2023-07-31T02:14:33;6.07;;;0.70;;
55090;SDS011;40985;53.180;5.800;2023-07-31T02:16:59;3.30;;;0.45;;
55090;SDS011;40985;53.180;5.800;2023-07-31T02:19:25;2.75;;;0.60;;
55090;SDS011;40985;53.180;5.800;2023-07-31T02:21:51;4.32;;;0.40;;
55090;SDS011;40985;53.180;5.800;2023-07-31T02:24:16;3.13;;;0.63;;
55090;SDS011;40985;53.180;5.800;2023-07-31T02:26:42;3.97;;;0.40;;
55090;SDS011;40985;53.180;5.800;2023-07-31T02:29:08;4.85;;;0.43;;
55090;SDS011;40985;53.180;5.800;2023-07-31T02:31:34;6.03;;;0.40;;
55090;SDS011;40985;53.180;5.800;2023-07-31T02:33:59;5.03;;;0.70;;
55090;SDS011;40985;53.180;5.800;2023-07-31T02:36:25;5.10;;;0.82;;
55090;SDS011;40985;53.180;5.800;2023-07-31T02:38:51;6.30;;;0.50;;
55090;SDS011;40985;53.180;5.800;2023-07-31T02:41:16;6.10;;;0.90;;
55090;SDS011;40985;53.180;5.800;2023-07-31T02:43:42;3.38;;;0.82;;
55090;SDS011;40985;53.180;5.800;2023-07-31T02:46:08;5.90;;;0.50;;
55090;SDS011;40985;53.180;5.800;2023-07-31T02:48:33;2.33;;;0.32;;
55090;SDS011;40985;53.180;5.800;2023-07-31T02:50:59;2.15;;;0.40;;
55090;SDS011;40985;53.180;5.800;2023-07-31T02:53:25;2.70;;;0.30;;
55090;SDS011;40985;53.180;5.800;2023-07-31T02:55:50;2.90;;;0.30;;
55090;SDS011;40985;53.180;5.800;2023-07-31T02:58:16;3.05;;;0.40;;
55090;SDS011;40985;53.180;5.800;2023-07-31T03:00:42;3.25;;;0.30;;
55090;SDS011;40985;53.180;5.800;2023-07-31T03:03:08;2.88;;;0.30;;
55090;SDS011;40985;53.180;5.800;2023-07-31T03:05:34;2.80;;;0.63;;
55090;SDS011;40985;53.180;5.800;2023-07-31T03:07:59;1.73;;;0.30;;
55090;SDS011;40985;53.180;5.800;2023-07-31T03:10:25;4.40;;;0.40;;
55090;SDS011;40985;53.180;5.800;2023-07-31T03:12:51;2.60;;;0.30;;
55090;SDS011;40985;53.180;5.800;2023-07-31T03:15:16;1.85;;;0.20;;
55090;SDS011;40985;53.180;5.800;2023-07-31T03:17:42;1.48;;;0.20;;
55090;SDS011;40985;53.180;5.800;2023-07-31T03:20:08;0.75;;;0.20;;
55090;SDS011;40985;53.180;5.800;2023-07-31T03:22:34;1.73;;;0.20;;
55090;SDS011;40985;53.180;5.800;2023-07-31T03:25:00;2.40;;;0.30;;
55090;SDS011;40985;53.180;5.800;2023-07-31T03:27:26;3.75;;;0.20;;
55090;SDS011;40985;53.180;5.800;2023-07-31T03:29:52;0.88;;;0.20;;
55090;SDS011;40985;53.180;5.800;2023-07-31T03:32:18;1.35;;;0.40;;
55090;SDS011;40985;53.180;5.800;2023-07-31T03:34:44;0.60;;;0.20;;
55090;SDS011;40985;53.180;5.800;2023-07-31T03:37:09;2.35;;;0.20;;
55090;SDS011;40985;53.180;5.800;2023-07-31T03:39:35;1.15;;;0.20;;
55090;SDS011;40985;53.180;5.800;2023-07-31T03:42:01;0.90;;;0.20;;
55090;SDS011;40985;53.180;5.800;2023-07-31T03:44:26;0.50;;;0.20;;
55090;SDS011;40985;53.180;5.800;2023-07-31T03:46:52;0.60;;;0.20;;
55090;SDS011;40985;53.180;5.800;2023-07-31T03:49:18;2.05;;;0.20;;
55090;SDS011;40985;53.180;5.800;2023-07-31T03:51:43;0.70;;;0.20;;
55090;SDS011;40985;53.180;5.800;2023-07-31T03:54:09;0.70;;;0.20;;
55090;SDS011;40985;53.180;5.800;2023-07-31T03:56:35;0.30;;;0.20;;
55090;SDS011;40985;53.180;5.800;2023-07-31T03:59:01;0.60;;;0.20;;
55090;SDS011;40985;53.180;5.800;2023-07-31T04:01:26;1.90;;;0.20;;
55090;SDS011;40985;53.180;5.800;2023-07-31T04:03:52;1.95;;;0.20;;
55090;SDS011;40985;53.180;5.800;2023-07-31T04:06:18;1.30;;;0.30;;
55090;SDS011;40985;53.180;5.800;2023-07-31T04:08:44;0.30;;;0.13;;
55090;SDS011;40985;53.180;5.800;2023-07-31T04:11:10;0.85;;;0.20;;
55090;SDS011;40985;53.180;5.800;2023-07-31T04:13:37;1.23;;;0.20;;
55090;SDS011;40985;53.180;5.800;2023-07-31T04:16:03;0.93;;;0.20;;
55090;SDS011;40985;53.180;5.800;2023-07-31T04:18:29;0.70;;;0.35;;
55090;SDS011;40985;53.180;5.800;2023-07-31T04:20:56;4.13;;;0.90;;
55090;SDS011;40985;53.180;5.800;2023-07-31T04:23:23;5.60;;;0.80;;
55090;SDS011;40985;53.180;5.800;2023-07-31T04:25:49;4.85;;;1.40;;
55090;SDS011;40985;53.180;5.800;2023-07-31T04:28:15;10.45;;;2.58;;
55090;SDS011;40985;53.180;5.800;2023-07-31T04:30:41;12.02;;;3.60;;
55090;SDS011;40985;53.180;5.800;2023-07-31T04:33:06;20.02;;;3.95;;
55090;SDS011;40985;53.180;5.800;2023-07-31T04:35:32;11.75;;;3.35;;
55090;SDS011;40985;53.180;5.800;2023-07-31T04:37:58;14.80;;;3.65;;
55090;SDS011;40985;53.180;5.800;2023-07-31T04:40:24;15.80;;;3.65;;
55090;SDS011;40985;53.180;5.800;2023-07-31T04:42:49;17.27;;;4.25;;
55090;SDS011;40985;53.180;5.800;2023-07-31T04:45:15;14.40;;;3.53;;
55090;SDS011;40985;53.180;5.800;2023-07-31T04:47:41;13.57;;;3.58;;
55090;SDS011;40985;53.180;5.800;2023-07-31T04:50:06;9.55;;;3.42;;
55090;SDS011;40985;53.180;5.800;2023-07-31T04:52:32;12.30;;;2.75;;
55090;SDS011;40985;53.180;5.800;2023-07-31T04:54:58;8.85;;;2.83;;
55090;SDS011;40985;53.180;5.800;2023-07-31T04:57:24;10.63;;;2.72;;
55090;SDS011;40985;53.180;5.800;2023-07-31T04:59:49;10.35;;;2.72;;
55090;SDS011;40985;53.180;5.800;2023-07-31T05:02:15;9.18;;;2.08;;
55090;SDS011;40985;53.180;5.800;2023-07-31T05:04:41;9.50;;;2.92;;
55090;SDS011;40985;53.180;5.800;2023-07-31T05:07:06;11.00;;;2.65;;
55090;SDS011;40985;53.180;5.800;2023-07-31T05:09:32;11.27;;;2.45;;
55090;SDS011;40985;53.180;5.800;2023-07-31T05:11:58;12.68;;;3.17;;
55090;SDS011;40985;53.180;5.800;2023-07-31T05:14:24;14.05;;;3.70;;
55090;SDS011;40985;53.180;5.800;2023-07-31T05:16:50;12.50;;;4.15;;
55090;SDS011;40985;53.180;5.800;2023-07-31T05:19:16;13.00;;;3.67;;
55090;SDS011;40985;53.180;5.800;2023-07-31T05:21:41;18.27;;;4.05;;
55090;SDS011;40985;53.180;5.800;2023-07-31T05:24:07;18.50;;;4.40;;
55090;SDS011;40985;53.180;5.800;2023-07-31T05:26:33;18.10;;;4.72;;
55090;SDS011;40985;53.180;5.800;2023-07-31T05:28:58;23.83;;;6.32;;
55090;SDS011;40985;53.180;5.800;2023-07-31T05:31:24;23.15;;;5.32;;
55090;SDS011;40985;53.180;5.800;2023-07-31T05:33:50;24.17;;;5.32;;
55090;SDS011;40985;53.180;5.800;2023-07-31T05:36:16;21.98;;;5.78;;
55090;SDS011;40985;53.180;5.800;2023-07-31T05:38:42;16.27;;;5.25;;
55090;SDS011;40985;53.180;5.800;2023-07-31T05:41:11;12.35;;;3.00;;
55090;SDS011;40985;53.180;5.800;2023-07-31T05:43:38;14.85;;;2.95;;
55090;SDS011;40985;53.180;5.800;2023-07-31T05:46:03;12.50;;;2.90;;
55090;SDS011;40985;53.180;5.800;2023-07-31T05:48:29;8.15;;;2.42;;
55090;SDS011;40985;53.180;5.800;2023-07-31T05:50:55;10.40;;;2.08;;
55090;SDS011;40985;53.180;5.800;2023-07-31T05:53:20;10.38;;;2.08;;
55090;SDS011;40985;53.180;5.800;2023-07-31T05:55:46;7.80;;;2.28;;
55090;SDS011;40985;53.180;5.800;2023-07-31T05:58:11;5.90;;;1.20;;
55090;SDS011;40985;53.180;5.800;2023-07-31T06:00:37;7.80;;;2.15;;
55090;SDS011;40985;53.180;5.800;2023-07-31T06:03:03;8.00;;;1.67;;
55090;SDS011;40985;53.180;5.800;2023-07-31T06:05:29;10.98;;;1.63;;
55090;SDS011;40985;53.180;5.800;2023-07-31T06:07:55;7.47;;;1.65;;
55090;SDS011;40985;53.180;5.800;2023-07-31T06:10:21;6.57;;;1.95;;
55090;SDS011;40985;53.180;5.800;2023-07-31T06:12:47;8.13;;;1.80;;
55090;SDS011;40985;53.180;5.800;2023-07-31T06:15:12;7.97;;;2.47;;
55090;SDS011;40985;53.180;5.800;2023-07-31T06:17:38;13.05;;;3.03;;
55090;SDS011;40985;53.180;5.800;2023-07-31T06:20:05;15.50;;;2.70;;
55090;SDS011;40985;53.180;5.800;2023-07-31T06:22:32;13.48;;;3.33;;
55090;SDS011;40985;53.180;5.800;2023-07-31T06:24:57;13.38;;;3.17;;
55090;SDS011;40985;53.180;5.800;2023-07-31T06:27:23;13.35;;;4.10;;
55090;SDS011;40985;53.180;5.800;2023-07-31T06:29:49;12.82;;;3.08;;
55090;SDS011;40985;53.180;5.800;2023-07-31T06:32:15;18.55;;;3.78;;
55090;SDS011;40985;53.180;5.800;2023-07-31T06:34:40;12.15;;;3.47;;
55090;SDS011;40985;53.180;5.800;2023-07-31T06:37:06;16.30;;;3.50;;
55090;SDS011;40985;53.180;5.800;2023-07-31T06:39:32;13.43;;;3.67;;
55090;SDS011;40985;53.180;5.800;2023-07-31T06:41:57;15.27;;;3.35;;
55090;SDS011;40985;53.180;5.800;2023-07-31T06:44:23;14.57;;;3.17;;
55090;SDS011;40985;53.180;5.800;2023-07-31T06:46:49;9.50;;;2.30;;
55090;SDS011;40985;53.180;5.800;2023-07-31T06:49:14;9.73;;;1.70;;
55090;SDS011;40985;53.180;5.800;2023-07-31T06:51:40;9.15;;;1.58;;
55090;SDS011;40985;53.180;5.800;2023-07-31T06:54:07;8.23;;;1.27;;
55090;SDS011;40985;53.180;5.800;2023-07-31T06:56:33;8.48;;;1.65;;
55090;SDS011;40985;53.180;5.800;2023-07-31T06:58:59;7.43;;;1.48;;
55090;SDS011;40985;53.180;5.800;2023-07-31T07:01:25;6.88;;;1.20;;
55090;SDS011;40985;53.180;5.800;2023-07-31T07:03:51;7.30;;;1.00;;
55090;SDS011;40985;53.180;5.800;2023-07-31T07:06:17;2.85;;;0.88;;
55090;SDS011;40985;53.180;5.800;2023-07-31T07:08:43;3.97;;;0.82;;
55090;SDS011;40985;53.180;5.800;2023-07-31T07:11:08;4.00;;;0.80;;
55090;SDS011;40985;53.180;5.800;2023-07-31T07:13:34;5.40;;;0.60;;
55090;SDS011;40985;53.180;5.800;2023-07-31T07:16:00;3.55;;;0.45;;
55090;SDS011;40985;53.180;5.800;2023-07-31T07:18:25;1.92;;;0.45;;
55090;SDS011;40985;53.180;5.800;2023-07-31T07:20:51;4.18;;;0.60;;
55090;SDS011;40985;53.180;5.800;2023-07-31T07:23:18;2.75;;;0.60;;
55090;SDS011;40985;53.180;5.800;2023-07-31T07:25:44;2.58;;;0.50;;
55090;SDS011;40985;53.180;5.800;2023-07-31T07:28:10;3.85;;;0.50;;
55090;SDS011;40985;53.180;5.800;2023-07-31T07:30:36;1.52;;;0.47;;
55090;SDS011;40985;53.180;5.800;2023-07-31T07:33:02;3.35;;;0.50;;
55090;SDS011;40985;53.180;5.800;2023-07-31T07:35:28;1.08;;;0.50;;
55090;SDS011;40985;53.180;5.800;2023-07-31T07:37:53;3.70;;;0.38;;
55090;SDS011;40985;53.180;5.800;2023-07-31T07:40:20;1.77;;;0.40;;
55090;SDS011;40985;53.180;5.800;2023-07-31T07:42:46;2.33;;;0.30;;
55090;SDS011;40985;53.180;5.800;2023-07-31T07:45:12;1.92;;;0.20;;
55090;SDS011;40985;53.180;5.800;2023-07-31T07:47:38;0.73;;;0.20;;
55090;SDS011;40985;53.180;5.800;2023-07-31T07:50:05;1.10;;;0.10;;
55090;SDS011;40985;53.180;5.800;2023-07-31T07:52:32;2.10;;;0.10;;
55090;SDS011;40985;53.180;5.800;2023-07-31T07:54:57;0.17;;;0.08;;
55090;SDS011;40985;53.180;5.800;2023-07-31T07:57:23;0.35;;;0.00;;
55090;SDS011;40985;53.180;5.800;2023-07-31T07:59:49;0.70;;;0.00;;
55090;SDS011;40985;53.180;5.800;2023-07-31T08:02:14;1.05;;;0.10;;
55090;SDS011;40985;53.180;5.800;2023-07-31T08:04:40;1.27;;;0.10;;
55090;SDS011;40985;53.180;5.800;2023-07-31T08:07:06;2.20;;;0.10;;
55090;SDS011;40985;53.180;5.800;2023-07-31T08:09:31;2.10;;;0.10;;
55090;SDS011;40985;53.180;5.800;2023-07-31T08:11:57;0.98;;;0.10;;
55090;SDS011;40985;53.180;5.800;2023-07-31T08:14:27;1.13;;;0.10;;
55090;SDS011;40985;53.180;5.800;2023-07-31T08:16:53;1.27;;;0.20;;
55090;SDS011;40985;53.180;5.800;2023-07-31T08:19:18;2.03;;;0.30;;
55090;SDS011;40985;53.180;5.800;2023-07-31T08:21:44;2.85;;;0.15;;
55090;SDS011;40985;53.180;5.800;2023-07-31T08:24:10;2.35;;;0.20;;
55090;SDS011;40985;53.180;5.800;2023-07-31T08:26:35;2.65;;;0.20;;
55090;SDS011;40985;53.180;5.800;2023-07-31T08:29:01;2.65;;;0.20;;
55090;SDS011;40985;53.180;5.800;2023-07-31T08:31:27;2.78;;;0.17;;
55090;SDS011;40985;53.180;5.800;2023-07-31T08:33:54;3.70;;;0.30;;
55090;SDS011;40985;53.180;5.800;2023-07-31T08:36:20;1.05;;;0.20;;
55090;SDS011;40985;53.180;5.800;2023-07-31T08:38:46;2.63;;;0.20;;
55090;SDS011;40985;53.180;5.800;2023-07-31T08:41:12;1.52;;;0.20;;
55090;SDS011;40985;53.180;5.800;2023-07-31T08:43:38;3.50;;;0.82;;
55090;SDS011;40985;53.180;5.800;2023-07-31T08:46:05;2.97;;;0.10;;
55090;SDS011;40985;53.180;5.800;2023-07-31T08:48:31;1.45;;;0.17;;
55090;SDS011;40985;53.180;5.800;2023-07-31T08:50:58;1.45;;;0.10;;
55090;SDS011;40985;53.180;5.800;2023-07-31T08:53:23;0.57;;;0.10;;
55090;SDS011;40985;53.180;5.800;2023-07-31T08:55:49;2.45;;;0.30;;
55090;SDS011;40985;53.180;5.800;2023-07-31T08:58:17;2.42;;;0.20;;
55090;SDS011;40985;53.180;5.800;2023-07-31T09:00:45;0.68;;;0.35;;
55090;SDS011;40985;53.180;5.800;2023-07-31T09:05:38;4.35;;;0.20;;
55090;SDS011;40985;53.180;5.800;2023-07-31T09:08:07;2.47;;;0.25;;
55090;SDS011;40985;53.180;5.800;2023-07-31T09:10:35;1.42;;;0.10;;
55090;SDS011;40985;53.180;5.800;2023-07-31T09:13:00;1.25;;;0.10;;
55090;SDS011;40985;53.180;5.800;2023-07-31T09:15:27;1.58;;;0.10;;
55090;SDS011;40985;53.180;5.800;2023-07-31T09:18:00;1.05;;;0.10;;
55090;SDS011;40985;53.180;5.800;2023-07-31T09:20:28;1.70;;;0.35;;
55090;SDS011;40985;53.180;5.800;2023-07-31T09:22:53;0.45;;;0.00;;
55090;SDS011;40985;53.180;5.800;2023-07-31T09:25:21;1.65;;;0.10;;
55090;SDS011;40985;53.180;5.800;2023-07-31T09:27:48;0.50;;;0.05;;
55090;SDS011;40985;53.180;5.800;2023-07-31T09:30:14;1.38;;;0.10;;
55090;SDS011;40985;53.180;5.800;2023-07-31T09:32:40;1.00;;;0.10;;
55090;SDS011;40985;53.180;5.800;2023-07-31T09:37:49;2.65;;;0.20;;
55090;SDS011;40985;53.180;5.800;2023-07-31T09:40:38;0.75;;;0.17;;
55090;SDS011;40985;53.180;5.800;2023-07-31T09:43:04;3.60;;;0.50;;
55090;SDS011;40985;53.180;5.800;2023-07-31T09:45:33;2.03;;;0.20;;
55090;SDS011;40985;53.180;5.800;2023-07-31T09:48:01;4.70;;;0.30;;
55090;SDS011;40985;53.180;5.800;2023-07-31T09:50:28;2.72;;;0.30;;
55090;SDS011;40985;53.180;5.800;2023-07-31T09:52:54;5.10;;;0.50;;
55090;SDS011;40985;53.180;5.800;2023-07-31T09:55:20;2.13;;;0.28;;
55090;SDS011;40985;53.180;5.800;2023-07-31T09:57:46;2.00;;;0.20;;
55090;SDS011;40985;53.180;5.800;2023-07-31T10:00:14;1.65;;;0.20;;
55090;SDS011;40985;53.180;5.800;2023-07-31T10:02:41;5.55;;;0.73;;
55090;SDS011;40985;53.180;5.800;2023-07-31T10:05:12;2.65;;;0.35;;
55090;SDS011;40985;53.180;5.800;2023-07-31T10:07:41;1.55;;;0.20;;
55090;SDS011;40985;53.180;5.800;2023-07-31T10:10:19;2.35;;;0.30;;
55090;SDS011;40985;53.180;5.800;2023-07-31T10:12:46;3.83;;;0.30;;
55090;SDS011;40985;53.180;5.800;2023-07-31T10:15:17;3.80;;;0.30;;
55090;SDS011;40985;53.180;5.800;2023-07-31T10:17:46;5.72;;;0.90;;
55090;SDS011;40985;53.180;5.800;2023-07-31T10:20:13;3.05;;;0.32;;
55090;SDS011;40985;53.180;5.800;2023-07-31T10:22:41;4.78;;;0.40;;
55090;SDS011;40985;53.180;5.800;2023-07-31T10:25:08;1.98;;;0.30;;
55090;SDS011;40985;53.180;5.800;2023-07-31T10:27:38;2.88;;;0.30;;
55090;SDS011;40985;53.180;5.800;2023-07-31T10:30:04;5.30;;;0.30;;
55090;SDS011;40985;53.180;5.800;2023-07-31T10:32:32;2.10;;;0.30;;
55090;SDS011;40985;53.180;5.800;2023-07-31T10:34:59;1.15;;;0.30;;
55090;SDS011;40985;53.180;5.800;2023-07-31T10:37:27;1.90;;;0.35;;
55090;SDS011;40985;53.180;5.800;2023-07-31T10:42:32;1.67;;;0.20;;
55090;SDS011;40985;53.180;5.800;2023-07-31T10:44:59;2.67;;;0.20;;
55090;SDS011;40985;53.180;5.800;2023-07-31T10:47:30;1.60;;;0.60;;
55090;SDS011;40985;53.180;5.800;2023-07-31T10:53:03;1.65;;;0.43;;
55090;SDS011;40985;53.180;5.800;2023-07-31T10:55:33;1.73;;;0.32;;
55090;SDS011;40985;53.180;5.800;2023-07-31T10:58:11;1.55;;;0.30;;
55090;SDS011;40985;53.180;5.800;2023-07-31T11:00:38;3.50;;;0.30;;
55090;SDS011;40985;53.180;5.800;2023-07-31T11:03:05;3.00;;;0.25;;
55090;SDS011;40985;53.180;5.800;2023-07-31T11:08:26;5.30;;;0.70;;
55090;SDS011;40985;53.180;5.800;2023-07-31T11:13:31;4.40;;;0.60;;
55090;SDS011;40985;53.180;5.800;2023-07-31T11:15:57;6.85;;;0.47;;
55090;SDS011;40985;53.180;5.800;2023-07-31T11:18:24;1.63;;;0.28;;
55090;SDS011;40985;53.180;5.800;2023-07-31T11:20:51;4.53;;;0.40;;
55090;SDS011;40985;53.180;5.800;2023-07-31T11:23:17;5.40;;;0.40;;
55090;SDS011;40985;53.180;5.800;2023-07-31T11:25:43;1.88;;;0.30;;
55090;SDS011;40985;53.180;5.800;2023-07-31T11:28:10;3.75;;;0.38;;
55090;SDS011;40985;53.180;5.800;2023-07-31T11:30:37;3.60;;;0.50;;
55090;SDS011;40985;53.180;5.800;2023-07-31T11:33:05;4.10;;;0.52;;
55090;SDS011;40985;53.180;5.800;2023-07-31T11:35:32;2.17;;;0.30;;
55090;SDS011;40985;53.180;5.800;2023-07-31T11:37:59;0.88;;;0.20;;
55090;SDS011;40985;53.180;5.800;2023-07-31T11:40:25;3.00;;;0.65;;
55090;SDS011;40985;53.180;5.800;2023-07-31T11:42:57;1.45;;;0.20;;
55090;SDS011;40985;53.180;5.800;2023-07-31T11:45:25;3.90;;;0.20;;
55090;SDS011;40985;53.180;5.800;2023-07-31T11:47:54;1.85;;;0.30;;
55090;SDS011;40985;53.180;5.800;2023-07-31T11:50:21;1.98;;;0.35;;
55090;SDS011;40985;53.180;5.800;2023-07-31T11:52:48;2.40;;;0.40;;
55090;SDS011;40985;53.180;5.800;2023-07-31T11:55:16;7.05;;;1.02;;
55090;SDS011;40985;53.180;5.800;2023-07-31T11:57:42;4.80;;;0.82;;
55090;SDS011;40985;53.180;5.800;2023-07-31T12:00:10;5.65;;;0.60;;
55090;SDS011;40985;53.180;5.800;2023-07-31T12:02:38;4.63;;;0.50;;
55090;SDS011;40985;53.180;5.800;2023-07-31T12:05:06;6.50;;;0.85;;
55090;SDS011;40985;53.180;5.800;2023-07-31T12:07:48;7.53;;;0.90;;
55090;SDS011;40985;53.180;5.800;2023-07-31T12:12:55;6.78;;;1.35;;
55090;SDS011;40985;53.180;5.800;2023-07-31T12:15:34;11.60;;;0.90;;
55090;SDS011;40985;53.180;5.800;2023-07-31T12:18:06;7.35;;;1.10;;
55090;SDS011;40985;53.180;5.800;2023-07-31T12:20:33;11.57;;;1.42;;
55090;SDS011;40985;53.180;5.800;2023-07-31T12:22:59;14.07;;;2.67;;
55090;SDS011;40985;53.180;5.800;2023-07-31T12:25:29;11.32;;;1.27;;
55090;SDS011;40985;53.180;5.800;2023-07-31T12:27:56;7.20;;;0.82;;
55090;SDS011;40985;53.180;5.800;2023-07-31T12:30:56;9.00;;;1.38;;
55090;SDS011;40985;53.180;5.800;2023-07-31T12:33:14;7.93;;;1.40;;
55090;SDS011;40985;53.180;5.800;2023-07-31T12:35:41;7.55;;;1.02;;
55090;SDS011;40985;53.180;5.800;2023-07-31T12:38:08;6.50;;;1.25;;
55090;SDS011;40985;53.180;5.800;2023-07-31T12:40:36;8.10;;;1.05;;
55090;SDS011;40985;53.180;5.800;2023-07-31T12:43:04;7.88;;;1.23;;
55090;SDS011;40985;53.180;5.800;2023-07-31T12:45:30;6.72;;;0.77;;
55090;SDS011;40985;53.180;5.800;2023-07-31T12:47:56;8.88;;;0.88;;
55090;SDS011;40985;53.180;5.800;2023-07-31T12:50:25;6.03;;;0.65;;
55090;SDS011;40985;53.180;5.800;2023-07-31T12:52:52;8.32;;;0.90;;
55090;SDS011;40985;53.180;5.800;2023-07-31T12:55:19;7.35;;;1.50;;
55090;SDS011;40985;53.180;5.800;2023-07-31T12:57:45;8.00;;;1.35;;
55090;SDS011;40985;53.180;5.800;2023-07-31T13:00:10;10.73;;;1.10;;
55090;SDS011;40985;53.180;5.800;2023-07-31T13:02:37;8.98;;;1.08;;
55090;SDS011;40985;53.180;5.800;2023-07-31T13:05:03;7.30;;;1.35;;
55090;SDS011;40985;53.180;5.800;2023-07-31T13:07:30;6.18;;;1.02;;
55090;SDS011;40985;53.180;5.800;2023-07-31T13:09:55;5.93;;;0.75;;
55090;SDS011;40985;53.180;5.800;2023-07-31T13:12:21;3.60;;;0.80;;
55090;SDS011;40985;53.180;5.800;2023-07-31T13:14:47;8.13;;;2.20;;
55090;SDS011;40985;53.180;5.800;2023-07-31T13:17:12;8.82;;;0.77;;
55090;SDS011;40985;53.180;5.800;2023-07-31T13:19:38;5.20;;;0.85;;
55090;SDS011;40985;53.180;5.800;2023-07-31T13:22:04;5.85;;;0.77;;
55090;SDS011;40985;53.180;5.800;2023-07-31T13:24:29;4.57;;;0.80;;
55090;SDS011;40985;53.180;5.800;2023-07-31T13:26:56;4.60;;;0.70;;
55090;SDS011;40985;53.180;5.800;2023-07-31T13:29:22;4.60;;;0.90;;
55090;SDS011;40985;53.180;5.800;2023-07-31T13:31:48;7.47;;;0.90;;
55090;SDS011;40985;53.180;5.800;2023-07-31T13:34:14;7.28;;;1.05;;
55090;SDS011;40985;53.180;5.800;2023-07-31T13:36:40;5.50;;;1.15;;
55090;SDS011;40985;53.180;5.800;2023-07-31T13:39:06;3.05;;;0.93;;
55090;SDS011;40985;53.180;5.800;2023-07-31T13:41:32;5.82;;;1.13;;
55090;SDS011;40985;53.180;5.800;2023-07-31T13:43:58;4.85;;;0.98;;
55090;SDS011;40985;53.180;5.800;2023-07-31T13:46:23;5.07;;;0.95;;
55090;SDS011;40985;53.180;5.800;2023-07-31T13:48:50;6.13;;;1.15;;
55090;SDS011;40985;53.180;5.800;2023-07-31T13:51:19;7.00;;;1.30;;
55090;SDS011;40985;53.180;5.800;2023-07-31T13:53:45;5.68;;;1.00;;
55090;SDS011;40985;53.180;5.800;2023-07-31T13:56:11;5.38;;;1.15;;
55090;SDS011;40985;53.180;5.800;2023-07-31T13:58:36;8.35;;;1.38;;
55090;SDS011;40985;53.180;5.800;2023-07-31T14:01:02;9.95;;;1.70;;
55090;SDS011;40985;53.180;5.800;2023-07-31T14:03:28;8.25;;;1.75;;
55090;SDS011;40985;53.180;5.800;2023-07-31T14:05:54;9.55;;;1.98;;
55090;SDS011;40985;53.180;5.800;2023-07-31T14:08:20;6.47;;;1.05;;
55090;SDS011;40985;53.180;5.800;2023-07-31T14:10:46;6.88;;;1.33;;
55090;SDS011;40985;53.180;5.800;2023-07-31T14:13:12;9.40;;;1.80;;
55090;SDS011;40985;53.180;5.800;2023-07-31T14:15:38;8.52;;;1.30;;
55090;SDS011;40985;53.180;5.800;2023-07-31T14:18:04;6.72;;;1.25;;
55090;SDS011;40985;53.180;5.800;2023-07-31T14:20:30;8.00;;;1.45;;
55090;SDS011;40985;53.180;5.800;2023-07-31T14:22:56;8.85;;;1.75;;
55090;SDS011;40985;53.180;5.800;2023-07-31T14:25:21;9.60;;;1.38;;
55090;SDS011;40985;53.180;5.800;2023-07-31T14:27:47;6.60;;;1.33;;
55090;SDS011;40985;53.180;5.800;2023-07-31T14:30:13;11.23;;;1.83;;
55090;SDS011;40985;53.180;5.800;2023-07-31T14:32:38;8.02;;;1.42;;
55090;SDS011;40985;53.180;5.800;2023-07-31T14:35:04;4.07;;;0.85;;
55090;SDS011;40985;53.180;5.800;2023-07-31T14:37:39;6.60;;;0.70;;
55090;SDS011;40985;53.180;5.800;2023-07-31T14:40:10;7.65;;;0.80;;
55090;SDS011;40985;53.180;5.800;2023-07-31T14:42:37;6.05;;;1.25;;
55090;SDS011;40985;53.180;5.800;2023-07-31T14:45:04;5.32;;;0.75;;
55090;SDS011;40985;53.180;5.800;2023-07-31T14:47:30;8.15;;;0.70;;
55090;SDS011;40985;53.180;5.800;2023-07-31T14:49:57;8.68;;;1.10;;
55090;SDS011;40985;53.180;5.800;2023-07-31T14:52:23;7.78;;;1.00;;
55090;SDS011;40985;53.180;5.800;2023-07-31T14:54:48;9.85;;;1.42;;
55090;SDS011;40985;53.180;5.800;2023-07-31T14:57:14;12.35;;;1.35;;
55090;SDS011;40985;53.180;5.800;2023-07-31T14:59:40;6.95;;;1.20;;
55090;SDS011;40985;53.180;5.800;2023-07-31T15:02:06;9.35;;;0.95;;
55090;SDS011;40985;53.180;5.800;2023-07-31T15:04:33;6.03;;;0.98;;